Time;durP1;ratioP1;P1;durP2;ratioP2;P2;SDS_P1;SDS_P2;PMS_P1;PMS_P2;Temp;Humidity;BMP_temperature;BMP_pressure;BME280_temperature;BME280_humidity;BME280_pressure;Samples;Min_cycle;Max_cycle;Signal;HPM_P1;HPM_P2
2021/04/28 00:00:31;;;;;;;12.82;7.85;;;;;;;;;;5070025;28;20083;-65
2021/04/28 00:02:59;;;;;;;14.95;8.73;;;;;;;;;;5068718;28;20484;-65
2021/04/28 00:05:26;;;;;;;15.50;9.15;;;;;;;;;;5069320;28;20114;-65
2021/04/28 00:07:54;;;;;;;15.50;8.18;;;;;;;;;;5068551;28;20443;-64
2021/04/28 00:10:24;;;;;;;14.70;8.38;;;;;;;;;;5068664;28;20063;-65
2021/04/28 00:12:51;;;;;;;22.70;8.40;;;;;;;;;;5068974;28;20625;-65
2021/04/28 00:15:20;;;;;;;15.15;8.05;;;;;;;;;;5067119;28;20484;-65
2021/04/28 00:17:48;;;;;;;14.10;8.23;;;;;;;;;;5067792;28;20048;-65
2021/04/28 00:20:18;;;;;;;13.60;8.57;;;;;;;;;;5069762;28;20048;-65
2021/04/28 00:22:46;;;;;;;15.07;8.20;;;;;;;;;;5068395;28;20094;-65
2021/04/28 00:25:14;;;;;;;16.20;8.38;;;;;;;;;;5068098;28;20084;-65
2021/04/28 00:27:42;;;;;;;15.63;8.55;;;;;;;;;;5068224;28;20508;-65
2021/04/28 00:30:11;;;;;;;16.23;8.52;;;;;;;;;;5069162;28;20454;-65
2021/04/28 00:32:39;;;;;;;13.93;8.82;;;;;;;;;;5068912;28;20381;-65
2021/04/28 00:35:09;;;;;;;16.45;8.82;;;;;;;;;;5066564;28;20060;-65
2021/04/28 00:37:36;;;;;;;16.50;9.00;;;;;;;;;;5067637;28;20555;-65
2021/04/28 00:40:05;;;;;;;14.73;8.93;;;;;;;;;;5069764;28;20048;-65
2021/04/28 00:42:33;;;;;;;13.20;8.18;;;;;;;;;;5070107;28;20110;-65
2021/04/28 00:45:01;;;;;;;15.07;8.63;;;;;;;;;;5082613;28;20142;-65
2021/04/28 00:47:28;;;;;;;13.80;8.77;;;;;;;;;;5080860;28;20102;-65
2021/04/28 00:49:57;;;;;;;16.00;8.93;;;;;;;;;;5073749;28;20053;-65
2021/04/28 00:52:24;;;;;;;12.18;8.18;;;;;;;;;;5070797;28;20106;-65
2021/04/28 00:54:52;;;;;;;14.18;8.68;;;;;;;;;;5068914;28;20053;-65
2021/04/28 00:57:19;;;;;;;14.98;8.82;;;;;;;;;;5071578;28;20110;-65
2021/04/28 00:59:46;;;;;;;15.00;8.25;;;;;;;;;;5072256;28;20552;-65
2021/04/28 01:02:14;;;;;;;15.80;8.57;;;;;;;;;;5086910;22;20049;-66
2021/04/28 01:04:42;;;;;;;16.20;9.20;;;;;;;;;;5075151;28;20485;-66
2021/04/28 01:07:11;;;;;;;14.90;8.13;;;;;;;;;;5074214;28;20127;-66
2021/04/28 01:09:39;;;;;;;18.80;9.38;;;;;;;;;;5072357;28;20537;-67
2021/04/28 01:12:07;;;;;;;16.90;8.60;;;;;;;;;;5071730;28;20040;-67
2021/04/28 01:14:35;;;;;;;15.90;9.02;;;;;;;;;;5069182;28;20059;-67
2021/04/28 01:17:02;;;;;;;15.15;8.70;;;;;;;;;;5071524;28;20044;-67
2021/04/28 01:19:32;;;;;;;15.25;8.52;;;;;;;;;;5071849;28;20118;-67
2021/04/28 01:22:00;;;;;;;17.23;9.18;;;;;;;;;;5070461;28;20056;-67
2021/04/28 01:24:28;;;;;;;16.13;8.95;;;;;;;;;;5071497;28;20063;-67
2021/04/28 01:26:59;;;;;;;16.10;8.95;;;;;;;;;;5069290;28;20047;-67
2021/04/28 01:29:28;;;;;;;12.77;8.20;;;;;;;;;;5071190;28;20056;-67
2021/04/28 01:31:57;;;;;;;16.08;9.10;;;;;;;;;;5070513;28;20040;-67
2021/04/28 01:34:25;;;;;;;14.90;8.32;;;;;;;;;;5068644;28;20489;-67
2021/04/28 01:36:53;;;;;;;15.30;9.48;;;;;;;;;;5070050;28;20122;-67
2021/04/28 01:39:22;;;;;;;15.65;8.88;;;;;;;;;;5071087;28;20127;-67
2021/04/28 01:41:51;;;;;;;15.68;8.48;;;;;;;;;;5070601;28;20052;-67
2021/04/28 01:44:20;;;;;;;15.75;9.07;;;;;;;;;;5070864;28;20087;-67
2021/04/28 01:46:48;;;;;;;15.90;9.27;;;;;;;;;;5070264;28;20057;-67
2021/04/28 01:49:16;;;;;;;17.55;9.48;;;;;;;;;;5071526;28;20127;-67
2021/04/28 01:51:44;;;;;;;12.27;8.20;;;;;;;;;;5070305;28;20106;-67
2021/04/28 01:54:16;;;;;;;15.35;9.65;;;;;;;;;;5070072;28;20086;-67
2021/04/28 01:56:45;;;;;;;14.52;8.82;;;;;;;;;;5069505;28;20128;-67
2021/04/28 01:59:15;;;;;;;15.80;8.93;;;;;;;;;;5071584;28;20123;-67
2021/04/28 02:01:43;;;;;;;13.95;9.02;;;;;;;;;;5068350;28;20127;-67
2021/04/28 02:04:11;;;;;;;17.33;9.30;;;;;;;;;;5070280;28;20449;-67
2021/04/28 02:06:39;;;;;;;14.52;8.18;;;;;;;;;;5068784;28;20083;-67
2021/04/28 02:09:07;;;;;;;15.77;9.18;;;;;;;;;;5069944;28;20110;-67
2021/04/28 02:11:34;;;;;;;17.15;9.75;;;;;;;;;;5069341;28;20051;-67
2021/04/28 02:14:02;;;;;;;16.75;9.50;;;;;;;;;;5070406;28;20048;-67
2021/04/28 02:16:31;;;;;;;13.02;9.02;;;;;;;;;;5068254;28;20454;-67
2021/04/28 02:18:59;;;;;;;15.07;9.13;;;;;;;;;;5070823;28;20052;-67
2021/04/28 02:21:27;;;;;;;16.40;9.63;;;;;;;;;;5069145;28;20127;-67
2021/04/28 02:23:54;;;;;;;15.15;9.38;;;;;;;;;;5067447;28;20045;-67
2021/04/28 02:26:22;;;;;;;18.00;10.00;;;;;;;;;;5068672;28;20135;-67
2021/04/28 02:28:49;;;;;;;17.17;9.98;;;;;;;;;;5069948;28;20120;-67
2021/04/28 02:31:17;;;;;;;20.30;9.70;;;;;;;;;;5067913;28;20514;-67
2021/04/28 02:33:45;;;;;;;22.88;10.27;;;;;;;;;;5070231;28;20052;-68
2021/04/28 02:36:12;;;;;;;17.55;10.85;;;;;;;;;;5068683;28;20123;-67
2021/04/28 02:38:42;;;;;;;19.02;10.57;;;;;;;;;;5068751;28;20106;-67
2021/04/28 02:41:09;;;;;;;17.52;10.50;;;;;;;;;;5068473;28;20127;-67
2021/04/28 02:43:37;;;;;;;17.55;9.27;;;;;;;;;;5070641;28;20055;-67
2021/04/28 02:46:06;;;;;;;17.63;9.93;;;;;;;;;;5066468;28;20056;-68
2021/04/28 02:48:33;;;;;;;16.15;9.52;;;;;;;;;;5069661;28;20048;-67
2021/04/28 02:51:02;;;;;;;19.58;10.25;;;;;;;;;;5068207;28;20044;-67
2021/04/28 02:53:30;;;;;;;18.73;10.30;;;;;;;;;;5069753;28;20131;-67
2021/04/28 02:55:58;;;;;;;15.85;10.30;;;;;;;;;;5069993;28;20520;-67
2021/04/28 02:58:26;;;;;;;18.80;10.13;;;;;;;;;;5068981;28;20040;-67
2021/04/28 03:00:54;;;;;;;16.88;10.95;;;;;;;;;;5068769;28;20484;-67
2021/04/28 03:03:21;;;;;;;18.23;10.57;;;;;;;;;;5069378;28;20528;-67
2021/04/28 03:05:50;;;;;;;17.45;10.55;;;;;;;;;;5066986;28;20564;-67
2021/04/28 03:08:18;;;;;;;18.80;10.55;;;;;;;;;;5067866;28;20044;-67
2021/04/28 03:10:47;;;;;;;18.75;10.40;;;;;;;;;;5070456;28;20049;-67
2021/04/28 03:13:15;;;;;;;18.05;10.63;;;;;;;;;;5069368;28;20131;-67
2021/04/28 03:15:42;;;;;;;16.88;10.38;;;;;;;;;;5069036;28;20444;-67
2021/04/28 03:18:10;;;;;;;20.05;10.15;;;;;;;;;;5068349;28;20375;-67
2021/04/28 03:20:40;;;;;;;20.40;10.57;;;;;;;;;;5070071;28;20062;-67
2021/04/28 03:23:11;;;;;;;19.42;11.07;;;;;;;;;;5068704;28;20542;-67
2021/04/28 03:25:40;;;;;;;21.40;11.35;;;;;;;;;;5066951;28;20095;-68
2021/04/28 03:28:07;;;;;;;23.73;11.75;;;;;;;;;;5061227;28;20048;-68
2021/04/28 03:30:35;;;;;;;18.65;11.15;;;;;;;;;;5055928;28;20185;-68
2021/04/28 03:33:03;;;;;;;18.88;10.57;;;;;;;;;;5069206;28;20167;-68
2021/04/28 03:35:30;;;;;;;18.13;11.00;;;;;;;;;;5070047;28;20076;-67
2021/04/28 03:37:58;;;;;;;21.88;11.18;;;;;;;;;;5067912;28;20084;-67
2021/04/28 03:40:25;;;;;;;20.70;11.27;;;;;;;;;;5069140;28;20076;-68
2021/04/28 03:42:53;;;;;;;20.88;11.38;;;;;;;;;;5068791;28;20087;-68
2021/04/28 03:45:21;;;;;;;22.92;10.77;;;;;;;;;;5068145;28;20567;-68
2021/04/28 03:47:48;;;;;;;22.77;10.68;;;;;;;;;;5065764;28;20143;-67
2021/04/28 03:50:15;;;;;;;19.55;11.25;;;;;;;;;;5069878;28;20080;-67
2021/04/28 03:53:02;;;;;;;23.80;12.63;;;;;;;;;;5066735;28;20056;-67
2021/04/28 03:55:30;;;;;;;18.23;11.35;;;;;;;;;;5068213;28;20087;-67
2021/04/28 03:57:58;;;;;;;19.92;11.32;;;;;;;;;;5066680;28;20588;-67
2021/04/28 04:00:26;;;;;;;26.15;12.50;;;;;;;;;;5069144;28;20080;-68
2021/04/28 04:02:53;;;;;;;20.75;11.43;;;;;;;;;;5068207;28;20135;-67
2021/04/28 04:05:20;;;;;;;20.67;11.77;;;;;;;;;;5069111;28;20056;-67
2021/04/28 04:07:48;;;;;;;21.67;12.68;;;;;;;;;;5066739;28;20091;-68
2021/04/28 04:10:15;;;;;;;26.50;11.52;;;;;;;;;;5066274;28;20048;-67
2021/04/28 04:12:43;;;;;;;20.30;11.57;;;;;;;;;;5068257;28;20044;-68
2021/04/28 04:15:11;;;;;;;20.02;10.70;;;;;;;;;;5068293;28;20044;-68
2021/04/28 04:17:38;;;;;;;18.70;10.85;;;;;;;;;;5071051;28;20107;-68
2021/04/28 04:20:06;;;;;;;21.75;12.43;;;;;;;;;;5072594;28;20076;-67
2021/04/28 04:22:34;;;;;;;17.80;11.32;;;;;;;;;;5071497;28;20049;-67
2021/04/28 04:25:01;;;;;;;24.13;12.45;;;;;;;;;;5071723;28;20143;-68
2021/04/28 04:27:28;;;;;;;18.90;11.55;;;;;;;;;;5072827;28;20622;-67
2021/04/28 04:29:56;;;;;;;22.38;12.27;;;;;;;;;;5072024;28;20094;-68
2021/04/28 04:32:24;;;;;;;21.65;11.85;;;;;;;;;;5073044;28;20127;-67
2021/04/28 04:34:51;;;;;;;24.48;11.40;;;;;;;;;;5073664;28;20040;-67
2021/04/28 04:37:19;;;;;;;24.25;11.35;;;;;;;;;;5065370;28;20506;-68
2021/04/28 04:39:46;;;;;;;22.58;12.10;;;;;;;;;;5071310;28;20040;-67
2021/04/28 04:42:14;;;;;;;20.85;11.32;;;;;;;;;;5071687;28;20048;-67
2021/04/28 04:44:41;;;;;;;21.83;11.25;;;;;;;;;;5071680;28;20068;-67
2021/04/28 04:47:08;;;;;;;23.30;12.75;;;;;;;;;;5070361;28;20141;-68
2021/04/28 04:49:38;;;;;;;22.90;11.55;;;;;;;;;;5065153;28;20041;-67
2021/04/28 04:52:06;;;;;;;28.73;11.38;;;;;;;;;;5071248;28;20463;-67
2021/04/28 04:54:33;;;;;;;22.80;11.70;;;;;;;;;;5069197;28;20041;-68
2021/04/28 04:57:01;;;;;;;25.00;11.93;;;;;;;;;;5070855;28;20047;-67
2021/04/28 04:59:28;;;;;;;27.40;12.50;;;;;;;;;;5067676;28;20086;-67
2021/04/28 05:01:56;;;;;;;24.60;12.10;;;;;;;;;;5071198;28;20056;-67
2021/04/28 05:04:24;;;;;;;22.65;12.57;;;;;;;;;;5071926;28;20080;-68
2021/04/28 05:06:53;;;;;;;24.63;12.70;;;;;;;;;;5057151;28;20114;-67
2021/04/28 05:09:21;;;;;;;23.73;12.38;;;;;;;;;;5065137;28;20049;-68
2021/04/28 05:11:48;;;;;;;25.10;11.82;;;;;;;;;;5071154;28;20063;-67
2021/04/28 05:14:15;;;;;;;26.48;12.70;;;;;;;;;;5068145;28;20068;-67
2021/04/28 05:16:47;;;;;;;25.70;13.18;;;;;;;;;;5058562;28;20416;-68
2021/04/28 05:19:15;;;;;;;23.75;12.32;;;;;;;;;;5063147;28;20135;-67
2021/04/28 05:21:42;;;;;;;26.52;13.65;;;;;;;;;;5071841;28;20052;-67
2021/04/28 05:24:10;;;;;;;26.60;13.80;;;;;;;;;;5072710;28;20114;-67
2021/04/28 05:26:38;;;;;;;23.73;13.25;;;;;;;;;;5072544;28;20052;-67
2021/04/28 05:29:05;;;;;;;39.80;15.57;;;;;;;;;;5069678;28;20574;-67
2021/04/28 05:31:33;;;;;;;35.13;15.32;;;;;;;;;;5070718;28;20090;-67
2021/04/28 05:34:00;;;;;;;23.60;13.85;;;;;;;;;;5070146;28;20071;-67
2021/04/28 05:36:28;;;;;;;27.30;14.18;;;;;;;;;;5070790;28;20083;-68
2021/04/28 05:38:59;;;;;;;23.40;13.75;;;;;;;;;;5068845;28;20118;-67
2021/04/28 05:41:27;;;;;;;24.30;13.77;;;;;;;;;;5070947;28;20093;-67
2021/04/28 05:43:54;;;;;;;26.23;15.07;;;;;;;;;;5062250;28;20128;-67
2021/04/28 05:46:22;;;;;;;27.67;14.63;;;;;;;;;;5071202;28;20060;-66
2021/04/28 05:48:49;;;;;;;22.63;13.15;;;;;;;;;;5069400;28;20057;-66
2021/04/28 05:51:17;;;;;;;23.45;13.85;;;;;;;;;;5068814;28;20526;-66
2021/04/28 05:53:44;;;;;;;24.77;14.43;;;;;;;;;;5070589;28;20040;-67
2021/04/28 05:56:12;;;;;;;25.45;13.55;;;;;;;;;;5067842;28;20076;-66
2021/04/28 05:58:40;;;;;;;23.63;14.82;;;;;;;;;;5070283;28;20462;-66
2021/04/28 06:01:08;;;;;;;25.73;12.93;;;;;;;;;;5068276;28;20060;-67
2021/04/28 06:03:35;;;;;;;25.20;13.45;;;;;;;;;;5070699;28;20064;-66
2021/04/28 06:06:03;;;;;;;21.02;11.75;;;;;;;;;;5069045;28;20044;-66
2021/04/28 06:08:30;;;;;;;23.67;11.90;;;;;;;;;;5069400;28;20043;-67
2021/04/28 06:10:58;;;;;;;23.77;12.05;;;;;;;;;;5067580;28;20143;-66
2021/04/28 06:13:26;;;;;;;19.92;12.60;;;;;;;;;;5067689;28;20047;-66
2021/04/28 06:15:55;;;;;;;20.77;11.70;;;;;;;;;;5070570;28;20133;-67
2021/04/28 06:18:23;;;;;;;22.35;11.77;;;;;;;;;;5066474;28;20055;-67
2021/04/28 06:20:50;;;;;;;20.70;12.00;;;;;;;;;;5067574;28;20167;-67
2021/04/28 06:23:18;;;;;;;28.70;13.27;;;;;;;;;;5069887;28;20052;-66
2021/04/28 06:25:47;;;;;;;22.23;13.13;;;;;;;;;;5070689;28;20055;-67
2021/04/28 06:28:14;;;;;;;22.55;12.02;;;;;;;;;;5066378;28;20048;-66
2021/04/28 06:30:42;;;;;;;20.73;12.48;;;;;;;;;;5057067;28;20097;-66
2021/04/28 06:33:11;;;;;;;34.17;12.60;;;;;;;;;;5069977;28;20151;-67
2021/04/28 06:35:38;;;;;;;25.10;13.18;;;;;;;;;;5069393;28;20283;-66
2021/04/28 06:38:06;;;;;;;17.90;11.32;;;;;;;;;;5068971;28;20484;-66
2021/04/28 06:40:34;;;;;;;27.42;12.38;;;;;;;;;;5069891;28;20049;-66
2021/04/28 06:43:02;;;;;;;33.65;13.15;;;;;;;;;;5069320;28;20044;-67
2021/04/28 06:45:30;;;;;;;24.67;13.77;;;;;;;;;;5065814;28;20048;-67
2021/04/28 06:47:57;;;;;;;26.92;13.20;;;;;;;;;;5069909;28;20044;-67
2021/04/28 06:50:27;;;;;;;29.75;12.77;;;;;;;;;;5068867;28;20048;-66
2021/04/28 06:52:54;;;;;;;27.30;13.52;;;;;;;;;;5069240;28;20443;-67
2021/04/28 06:55:22;;;;;;;27.75;14.48;;;;;;;;;;5068723;28;20051;-67
2021/04/28 06:57:55;;;;;;;24.20;13.30;;;;;;;;;;5067055;28;20110;-66
2021/04/28 07:00:25;;;;;;;28.85;13.30;;;;;;;;;;5067625;28;20434;-66
2021/04/28 07:02:54;;;;;;;27.75;13.73;;;;;;;;;;5066369;28;20088;-67
2021/04/28 07:05:22;;;;;;;23.27;13.18;;;;;;;;;;5069228;28;20162;-66
2021/04/28 07:07:54;;;;;;;20.58;12.75;;;;;;;;;;5068998;28;20135;-67
2021/04/28 07:10:23;;;;;;;23.35;13.48;;;;;;;;;;5067565;28;20138;-67
2021/04/28 07:12:51;;;;;;;24.10;13.32;;;;;;;;;;5067693;28;20430;-67
2021/04/28 07:15:20;;;;;;;25.35;13.13;;;;;;;;;;5069448;28;20056;-67
2021/04/28 07:17:48;;;;;;;23.25;11.93;;;;;;;;;;5068523;28;20123;-67
2021/04/28 07:20:16;;;;;;;28.08;12.50;;;;;;;;;;5068353;28;20041;-67
2021/04/28 07:22:45;;;;;;;23.73;13.02;;;;;;;;;;5068318;28;20045;-67
2021/04/28 07:25:15;;;;;;;22.05;13.13;;;;;;;;;;5068945;28;20052;-68
2021/04/28 07:27:43;;;;;;;22.50;13.27;;;;;;;;;;5064248;28;20076;-67
2021/04/28 07:30:12;;;;;;;23.02;13.05;;;;;;;;;;5069344;28;20378;-67
2021/04/28 07:32:40;;;;;;;23.58;12.75;;;;;;;;;;5068330;28;20048;-67
2021/04/28 07:35:13;;;;;;;20.73;12.25;;;;;;;;;;5068776;28;20384;-67
2021/04/28 07:37:42;;;;;;;20.65;12.45;;;;;;;;;;5067586;28;20044;-68
2021/04/28 07:40:11;;;;;;;21.08;12.50;;;;;;;;;;5054259;28;20132;-68
2021/04/28 07:42:40;;;;;;;22.50;12.65;;;;;;;;;;5061626;28;20048;-68
2021/04/28 07:45:10;;;;;;;19.27;12.90;;;;;;;;;;5063912;28;20052;-67
2021/04/28 07:47:38;;;;;;;20.98;13.77;;;;;;;;;;5069059;28;20109;-68
2021/04/28 07:50:14;;;;;;;18.80;13.23;;;;;;;;;;5063386;28;20045;-67
2021/04/28 07:52:42;;;;;;;20.77;12.63;;;;;;;;;;5070735;28;20075;-67
2021/04/28 07:55:11;;;;;;;23.30;13.27;;;;;;;;;;5072547;28;20040;-68
2021/04/28 07:57:40;;;;;;;18.33;12.05;;;;;;;;;;5070904;28;20105;-68
2021/04/28 08:00:09;;;;;;;20.73;12.65;;;;;;;;;;5068694;28;20056;-68
2021/04/28 08:02:37;;;;;;;18.35;12.68;;;;;;;;;;5071233;28;20057;-68
2021/04/28 08:05:05;;;;;;;20.38;13.55;;;;;;;;;;5071968;28;20048;-67
2021/04/28 08:07:33;;;;;;;21.73;12.77;;;;;;;;;;5071001;28;20459;-67
2021/04/28 08:10:01;;;;;;;20.88;13.43;;;;;;;;;;5071689;28;20049;-67
2021/04/28 08:12:29;;;;;;;18.35;13.35;;;;;;;;;;5066423;28;21274;-68
2021/04/28 08:14:57;;;;;;;24.05;13.02;;;;;;;;;;5073164;28;20048;-67
2021/04/28 08:17:25;;;;;;;26.05;13.20;;;;;;;;;;5071838;28;20048;-67
2021/04/28 08:19:53;;;;;;;21.30;13.68;;;;;;;;;;5072011;28;20127;-68
2021/04/28 08:22:21;;;;;;;19.15;12.65;;;;;;;;;;5070639;28;20048;-68
2021/04/28 08:24:49;;;;;;;23.38;13.40;;;;;;;;;;5068793;28;20519;-68
2021/04/28 08:27:17;;;;;;;20.23;12.98;;;;;;;;;;5066657;28;20044;-67
2021/04/28 08:29:45;;;;;;;21.58;12.90;;;;;;;;;;5070621;28;20476;-67
2021/04/28 08:32:14;;;;;;;23.05;12.68;;;;;;;;;;5070294;28;20048;-68
2021/04/28 08:34:42;;;;;;;26.13;13.60;;;;;;;;;;5070230;28;20041;-69
2021/04/28 08:37:10;;;;;;;24.08;13.65;;;;;;;;;;5071634;28;20500;-68
2021/04/28 08:39:37;;;;;;;20.40;12.68;;;;;;;;;;5071643;28;20045;-69
2021/04/28 08:42:05;;;;;;;22.70;14.05;;;;;;;;;;5068286;28;20102;-68
2021/04/28 08:44:35;;;;;;;24.75;12.73;;;;;;;;;;5070039;28;20052;-67
2021/04/28 08:47:03;;;;;;;18.02;13.80;;;;;;;;;;5071613;28;20055;-67
2021/04/28 08:49:32;;;;;;;18.10;12.27;;;;;;;;;;5071670;28;20048;-69
2021/04/28 08:52:01;;;;;;;18.25;12.75;;;;;;;;;;5068940;28;20044;-68
2021/04/28 08:54:46;;;;;;;19.10;12.65;;;;;;;;;;5061044;28;20041;-69
2021/04/28 08:57:14;;;;;;;17.35;11.77;;;;;;;;;;5065673;28;20142;-68
2021/04/28 08:59:42;;;;;;;18.02;12.05;;;;;;;;;;5071441;28;20120;-68
2021/04/28 09:02:16;;;;;;;18.83;12.95;;;;;;;;;;5069143;28;20079;-68
2021/04/28 09:05:00;;;;;;;18.63;12.43;;;;;;;;;;5068719;28;20491;-68
2021/04/28 09:07:30;;;;;;;21.42;13.07;;;;;;;;;;5068374;28;20127;-69
2021/04/28 09:10:03;;;;;;;22.75;13.02;;;;;;;;;;5068002;28;20052;-68
2021/04/28 09:12:31;;;;;;;20.88;11.77;;;;;;;;;;5068899;28;20398;-68
2021/04/28 09:14:59;;;;;;;17.60;12.40;;;;;;;;;;5066307;28;20419;-68
2021/04/28 09:17:26;;;;;;;19.85;12.25;;;;;;;;;;5070844;28;20044;-67
2021/04/28 09:20:09;;;;;;;20.20;11.77;;;;;;;;;;5069895;28;20131;-68
2021/04/28 09:22:38;;;;;;;20.08;12.05;;;;;;;;;;5062254;28;20551;-68
2021/04/28 09:25:06;;;;;;;23.83;13.30;;;;;;;;;;5069143;28;20458;-68
2021/04/28 09:27:35;;;;;;;21.45;12.88;;;;;;;;;;5057898;28;20057;-68
2021/04/28 09:30:04;;;;;;;22.33;13.43;;;;;;;;;;5069700;28;20083;-68
2021/04/28 09:32:32;;;;;;;20.00;13.02;;;;;;;;;;5067112;28;20052;-70
2021/04/28 09:35:13;;;;;;;22.35;13.30;;;;;;;;;;5065037;28;20071;-67
2021/04/28 09:37:51;;;;;;;18.20;12.95;;;;;;;;;;5069905;28;20098;-67
2021/04/28 09:40:19;;;;;;;19.52;11.60;;;;;;;;;;5065988;28;20048;-68
2021/04/28 09:42:53;;;;;;;19.90;12.95;;;;;;;;;;5069537;28;20048;-68
2021/04/28 09:45:36;;;;;;;15.52;11.25;;;;;;;;;;5069590;28;20407;-68
2021/04/28 09:48:05;;;;;;;20.17;12.57;;;;;;;;;;5070667;28;20052;-69
2021/04/28 09:50:33;;;;;;;17.50;12.35;;;;;;;;;;5069137;28;20105;-68
2021/04/28 09:53:02;;;;;;;20.15;12.30;;;;;;;;;;5066923;28;20048;-68
2021/04/28 09:55:31;;;;;;;17.85;10.43;;;;;;;;;;5069219;28;20136;-68
2021/04/28 09:57:58;;;;;;;19.15;11.57;;;;;;;;;;5065314;28;20052;-68
2021/04/28 10:00:28;;;;;;;17.52;11.35;;;;;;;;;;5067708;28;20041;-68
2021/04/28 10:02:57;;;;;;;13.38;11.00;;;;;;;;;;5069549;28;20053;-68
2021/04/28 10:05:27;;;;;;;17.27;11.38;;;;;;;;;;5064865;28;20507;-67
2021/04/28 10:08:09;;;;;;;16.10;11.48;;;;;;;;;;5061647;28;20051;-68
2021/04/28 10:10:38;;;;;;;19.80;10.73;;;;;;;;;;5057698;28;20123;-68
2021/04/28 10:13:06;;;;;;;15.85;10.85;;;;;;;;;;5068761;28;20087;-68
2021/04/28 10:15:34;;;;;;;18.98;10.93;;;;;;;;;;5061632;28;20067;-69
2021/04/28 10:18:03;;;;;;;16.00;11.50;;;;;;;;;;5067625;28;20044;-67
2021/04/28 10:20:32;;;;;;;17.65;10.48;;;;;;;;;;5069207;28;20045;-68
2021/04/28 10:23:03;;;;;;;16.50;11.13;;;;;;;;;;5059928;28;20047;-68
2021/04/28 10:25:33;;;;;;;14.15;10.07;;;;;;;;;;5066892;28;20052;-67
2021/04/28 10:28:02;;;;;;;15.23;10.48;;;;;;;;;;5067075;28;20312;-68
2021/04/28 10:30:30;;;;;;;19.02;11.05;;;;;;;;;;5064141;28;20080;-69
2021/04/28 10:32:59;;;;;;;14.70;11.32;;;;;;;;;;5058647;28;20048;-68
2021/04/28 10:35:29;;;;;;;15.98;10.98;;;;;;;;;;5067809;28;20127;-70
2021/04/28 10:37:58;;;;;;;17.48;11.48;;;;;;;;;;5062068;28;20066;-68
2021/04/28 10:40:27;;;;;;;18.83;11.18;;;;;;;;;;5063201;28;20048;-69
2021/04/28 10:43:06;;;;;;;18.92;10.77;;;;;;;;;;5067868;28;20587;-69
2021/04/28 10:45:38;;;;;;;15.82;11.30;;;;;;;;;;5065509;28;20045;-68
2021/04/28 10:48:39;;;;;;;16.20;10.77;;;;;;;;;;5067516;28;20061;-68
2021/04/28 10:51:07;;;;;;;21.15;11.23;;;;;;;;;;5065406;28;20045;-69
2021/04/28 10:53:35;;;;;;;15.82;9.60;;;;;;;;;;5062708;28;20048;-68
2021/04/28 10:56:08;;;;;;;17.95;10.07;;;;;;;;;;5066564;28;20044;-67
2021/04/28 10:58:41;;;;;;;13.50;8.52;;;;;;;;;;5060994;28;20044;-68
2021/04/28 11:01:33;;;;;;;15.60;8.90;;;;;;;;;;5062711;28;20423;-68
2021/04/28 11:04:01;;;;;;;17.80;9.75;;;;;;;;;;5063385;28;20052;-69
2021/04/28 11:06:39;;;;;;;17.08;10.77;;;;;;;;;;5063178;28;20044;-69
2021/04/28 11:09:08;;;;;;;16.02;10.25;;;;;;;;;;5059413;28;20044;-68
2021/04/28 11:11:41;;;;;;;14.82;9.27;;;;;;;;;;5063861;28;20044;-68
2021/04/28 11:14:36;;;;;;;16.23;8.73;;;;;;;;;;5063351;28;20040;-68
2021/04/28 11:17:20;;;;;;;12.88;7.95;;;;;;;;;;5061323;28;20059;-70
2021/04/28 11:19:50;;;;;;;11.20;7.35;;;;;;;;;;5058334;28;20060;-68
2021/04/28 11:22:21;;;;;;;10.63;7.07;;;;;;;;;;5063130;28;20048;-68
2021/04/28 11:25:00;;;;;;;14.15;7.45;;;;;;;;;;5064732;28;20135;-68
2021/04/28 11:27:41;;;;;;;12.80;6.75;;;;;;;;;;5063054;28;20059;-67
2021/04/28 11:30:29;;;;;;;12.85;7.93;;;;;;;;;;5062260;28;20809;-68
2021/04/28 11:33:17;;;;;;;13.75;7.72;;;;;;;;;;5063334;28;20771;-68
2021/04/28 11:35:46;;;;;;;19.30;8.98;;;;;;;;;;5055808;28;20121;-68
2021/04/28 11:38:16;;;;;;;13.85;8.02;;;;;;;;;;5064151;28;20123;-68
2021/04/28 11:40:54;;;;;;;12.80;8.07;;;;;;;;;;5065206;28;20055;-68
2021/04/28 11:43:23;;;;;;;12.10;7.68;;;;;;;;;;5063384;28;20052;-69
2021/04/28 11:45:51;;;;;;;17.77;9.25;;;;;;;;;;5060424;28;20139;-68
2021/04/28 11:48:20;;;;;;;10.73;7.53;;;;;;;;;;5056584;28;20568;-69
2021/04/28 11:51:01;;;;;;;19.00;8.35;;;;;;;;;;5064095;28;20453;-68
2021/04/28 11:53:30;;;;;;;14.30;9.35;;;;;;;;;;5064251;28;20102;-69
2021/04/28 11:55:58;;;;;;;12.95;7.80;;;;;;;;;;5061045;28;20487;-68
2021/04/28 11:58:31;;;;;;;17.50;9.07;;;;;;;;;;5062627;28;20126;-69
2021/04/28 12:01:03;;;;;;;16.60;8.98;;;;;;;;;;5059668;28;20049;-67
2021/04/28 12:03:55;;;;;;;14.89;9.12;;;;;;;;;;4625778;28;10001577;-68
2021/04/28 12:06:31;;;;;;;16.77;9.23;;;;;;;;;;1737704;28;10001997;-68
2021/04/28 12:09:02;;;;;;;11.38;7.53;;;;;;;;;;5055107;28;20056;-67
2021/04/28 12:11:30;;;;;;;17.33;8.77;;;;;;;;;;5049176;28;20045;-67
2021/04/28 12:13:58;;;;;;;13.82;8.85;;;;;;;;;;5066712;28;20134;-68
2021/04/28 12:16:26;;;;;;;13.52;8.10;;;;;;;;;;5060211;28;20059;-66
2021/04/28 12:19:06;;;;;;;13.13;7.82;;;;;;;;;;5066851;28;20057;-67
2021/04/28 12:21:35;;;;;;;13.30;7.70;;;;;;;;;;5065524;28;20136;-67
2021/04/28 12:24:03;;;;;;;14.32;8.40;;;;;;;;;;5066530;28;20052;-67
2021/04/28 12:26:31;;;;;;;15.43;8.88;;;;;;;;;;5063500;28;20037;-68
2021/04/28 12:28:59;;;;;;;12.85;7.00;;;;;;;;;;5063653;28;20063;-71
2021/04/28 12:31:47;;;;;;;15.43;9.35;;;;;;;;;;5063054;28;20044;-69
2021/04/28 12:34:19;;;;;;;15.63;9.10;;;;;;;;;;5053451;28;20041;-68
2021/04/28 12:36:47;;;;;;;13.70;8.82;;;;;;;;;;5064620;28;20128;-68
2021/04/28 12:39:24;;;;;;;16.17;9.73;;;;;;;;;;5071114;28;20052;-68
2021/04/28 12:41:53;;;;;;;15.45;8.27;;;;;;;;;;5070529;28;20059;-69
2021/04/28 12:44:21;;;;;;;13.43;8.10;;;;;;;;;;5070934;28;20104;-71
2021/04/28 12:46:49;;;;;;;19.08;10.20;;;;;;;;;;5058440;28;20659;-68
2021/04/28 12:49:17;;;;;;;17.90;10.43;;;;;;;;;;5058028;28;20072;-68
2021/04/28 12:51:46;;;;;;;15.85;8.93;;;;;;;;;;5070073;28;20159;-68
2021/04/28 12:54:14;;;;;;;20.15;10.57;;;;;;;;;;5065045;28;20053;-68
2021/04/28 12:56:42;;;;;;;17.48;9.48;;;;;;;;;;5066228;28;20045;-68
2021/04/28 12:59:17;;;;;;;15.95;8.80;;;;;;;;;;5061827;28;20518;-67
2021/04/28 13:01:46;;;;;;;19.00;10.70;;;;;;;;;;5064345;28;20518;-69
2021/04/28 13:04:20;;;;;;;17.85;9.38;;;;;;;;;;5068303;28;20052;-69
2021/04/28 13:06:48;;;;;;;13.90;9.80;;;;;;;;;;5066768;28;20044;-68
2021/04/28 13:09:22;;;;;;;18.40;10.52;;;;;;;;;;5069188;28;20041;-68
2021/04/28 13:11:50;;;;;;;17.95;10.35;;;;;;;;;;5080295;28;20058;-68
2021/04/28 13:14:17;;;;;;;20.02;10.05;;;;;;;;;;5072614;28;20372;-67
2021/04/28 13:16:54;;;;;;;14.15;9.55;;;;;;;;;;5070066;28;20048;-68
2021/04/28 13:19:25;;;;;;;15.82;8.90;;;;;;;;;;5071990;28;20114;-68
2021/04/28 13:21:57;;;;;;;18.75;9.15;;;;;;;;;;5065475;28;20138;-68
2021/04/28 13:24:27;;;;;;;14.60;9.25;;;;;;;;;;5071318;28;20080;-68
2021/04/28 13:26:59;;;;;;;16.38;8.60;;;;;;;;;;5062861;28;20155;-69
2021/04/28 13:29:28;;;;;;;16.83;9.38;;;;;;;;;;5069591;28;20052;-68
2021/04/28 13:31:56;;;;;;;15.95;9.25;;;;;;;;;;5062558;28;20744;-67
2021/04/28 13:34:28;;;;;;;15.25;9.23;;;;;;;;;;5072219;28;20063;-67
2021/04/28 13:36:56;;;;;;;16.58;9.20;;;;;;;;;;5073205;28;20078;-67
2021/04/28 13:39:29;;;;;;;16.40;8.57;;;;;;;;;;5070943;28;20548;-68
2021/04/28 13:41:59;;;;;;;16.30;8.93;;;;;;;;;;5070535;28;20521;-68
2021/04/28 13:44:27;;;;;;;13.48;8.80;;;;;;;;;;5064081;28;20083;-72
2021/04/28 13:46:55;;;;;;;15.90;9.43;;;;;;;;;;5063037;28;20399;-67
2021/04/28 13:49:24;;;;;;;16.52;9.98;;;;;;;;;;5069616;28;20465;-67
2021/04/28 13:51:53;;;;;;;20.55;9.93;;;;;;;;;;5069649;28;20044;-67
2021/04/28 13:54:21;;;;;;;21.02;10.80;;;;;;;;;;5070437;28;20053;-67
2021/04/28 13:56:52;;;;;;;15.00;8.77;;;;;;;;;;5069769;28;20053;-67
2021/04/28 13:59:19;;;;;;;13.40;8.90;;;;;;;;;;5065066;28;20080;-67
2021/04/28 14:01:47;;;;;;;16.20;8.63;;;;;;;;;;5069303;28;20151;-70
2021/04/28 14:04:15;;;;;;;14.93;8.80;;;;;;;;;;5070915;28;20069;-67
2021/04/28 14:06:43;;;;;;;16.20;9.70;;;;;;;;;;5069745;28;20573;-68
2021/04/28 14:09:12;;;;;;;16.25;9.02;;;;;;;;;;5068907;28;20052;-68
2021/04/28 14:11:43;;;;;;;14.63;7.88;;;;;;;;;;5065116;28;20040;-67
2021/04/28 14:14:12;;;;;;;15.98;8.57;;;;;;;;;;5070311;28;20135;-67
2021/04/28 14:16:39;;;;;;;13.15;8.05;;;;;;;;;;5069906;28;20044;-67
2021/04/28 14:19:08;;;;;;;14.48;8.65;;;;;;;;;;5069395;28;20052;-69
2021/04/28 14:21:36;;;;;;;12.60;7.43;;;;;;;;;;5067802;28;20114;-67
2021/04/28 14:24:04;;;;;;;18.05;9.05;;;;;;;;;;5062739;28;20438;-67
2021/04/28 14:26:32;;;;;;;17.35;8.48;;;;;;;;;;5068194;28;20044;-67
2021/04/28 14:28:59;;;;;;;16.52;9.13;;;;;;;;;;5066562;28;20071;-68
2021/04/28 14:31:28;;;;;;;18.92;9.48;;;;;;;;;;5068522;28;20049;-67
2021/04/28 14:33:56;;;;;;;20.02;9.68;;;;;;;;;;5061267;28;20144;-68